createdAt,value
2022-08-16T00:05:27.604Z,74.05
2022-08-16T00:10:42.190Z,74.14
2022-08-16T00:15:52.187Z,74.26
2022-08-16T00:20:58.904Z,74.63
2022-08-16T00:26:36.556Z,74.70
2022-08-16T00:31:58.655Z,74.88
2022-08-16T00:36:55.670Z,75.09
2022-08-16T00:42:00.742Z,75.57
2022-08-16T00:47:10.544Z,75.60
2022-08-16T00:52:29.873Z,75.64
2022-08-16T00:57:59.640Z,75.90
2022-08-16T01:03:02.066Z,75.79
2022-08-16T01:08:35.846Z,75.92
2022-08-16T01:13:35.993Z,76.34
2022-08-16T01:19:02.791Z,76.07
2022-08-16T01:24:52.180Z,76.32
2022-08-16T01:30:19.435Z,76.57
2022-08-16T01:35:36.295Z,76.54
2022-08-16T01:40:40.706Z,76.63
2022-08-16T01:45:44.802Z,76.78
2022-08-16T01:51:08.417Z,76.59
2022-08-16T01:56:24.529Z,76.80
2022-08-16T02:01:31.999Z,76.54
2022-08-16T02:06:38.846Z,76.93
2022-08-16T02:11:53.081Z,77.42
2022-08-16T02:16:59.861Z,77.33
2022-08-16T02:22:35.967Z,77.36
2022-08-16T02:27:36.159Z,77.21
2022-08-16T02:32:51.289Z,77.23
2022-08-16T02:38:08.842Z,77.12
2022-08-16T02:43:14.075Z,77.27
2022-08-16T02:48:28.870Z,77.46
2022-08-16T02:53:37.258Z,77.51
2022-08-16T02:58:42.193Z,77.80
2022-08-16T03:04:39.696Z,78.02
2022-08-16T03:09:14.802Z,77.96
2022-08-16T03:14:21.176Z,78.22
2022-08-16T03:19:48.554Z,78.42
2022-08-16T03:25:02.554Z,78.53
2022-08-16T03:30:18.938Z,78.72
2022-08-16T03:35:33.418Z,78.88
2022-08-16T03:40:38.470Z,79.07
2022-08-16T03:45:42.548Z,79.26
2022-08-16T03:50:59.809Z,79.06
2022-08-16T03:56:04.750Z,78.85
2022-08-16T04:01:10.767Z,78.99
2022-08-16T04:06:17.237Z,78.81
2022-08-16T04:11:22.940Z,78.50
2022-08-16T04:16:28.351Z,78.55
2022-08-16T04:21:34.594Z,78.70
2022-08-16T04:26:38.195Z,78.99
2022-08-16T04:31:56.185Z,78.92
2022-08-16T04:37:02.706Z,79.11
2022-08-16T04:42:11.293Z,79.21
2022-08-16T04:47:21.626Z,79.22
2022-08-16T04:52:33.694Z,79.29
2022-08-16T04:57:39.581Z,78.94
2022-08-16T05:02:46.375Z,78.59
2022-08-16T05:07:58.537Z,79.02
2022-08-16T05:13:06.196Z,78.92
2022-08-16T05:18:16.189Z,79.08
2022-08-16T05:23:21.097Z,79.17
2022-08-16T05:28:30.975Z,79.28
2022-08-16T05:33:42.173Z,78.82
2022-08-16T05:38:47.175Z,77.57
2022-08-16T05:43:50.804Z,76.62
2022-08-16T05:49:08.889Z,76.20
2022-08-16T05:54:14.868Z,75.03
2022-08-16T05:59:22.144Z,74.79
2022-08-16T06:04:36.570Z,73.05
2022-08-16T06:09:43.551Z,72.60
2022-08-16T06:14:47.588Z,72.48
2022-08-16T06:19:55.551Z,72.72
2022-08-16T06:24:59.889Z,72.58
2022-08-16T06:30:05.024Z,72.72
2022-08-16T06:35:12.256Z,73.16
2022-08-16T06:40:16.669Z,72.74
2022-08-16T06:45:21.560Z,72.29
2022-08-16T06:50:29.783Z,71.88
2022-08-16T06:55:38.330Z,71.80
2022-08-16T07:00:43.077Z,71.70
2022-08-16T07:05:47.467Z,71.12
2022-08-16T07:10:51.956Z,69.21
2022-08-16T07:15:56.163Z,67.37
2022-08-16T07:21:01.968Z,66.39
2022-08-16T07:26:09.155Z,64.42
2022-08-16T07:31:14.409Z,63.60
2022-08-16T07:36:21.633Z,62.15
2022-08-16T07:41:32.168Z,61.42
2022-08-16T07:46:40.159Z,60.37
2022-08-16T07:51:47.110Z,59.72
2022-08-16T07:57:03.573Z,58.36
2022-08-16T08:02:11.969Z,57.75
2022-08-16T08:07:17.063Z,56.90
2022-08-16T08:12:32.510Z,56.24
2022-08-16T08:17:42.068Z,56.48
2022-08-16T08:22:51.693Z,55.03
2022-08-16T08:27:57.542Z,54.97
2022-08-16T08:33:02.659Z,54.69
2022-08-16T08:38:08.953Z,54.74
2022-08-16T08:43:18.132Z,55.32
2022-08-16T08:48:34.219Z,55.90
2022-08-16T08:53:40.105Z,55.94
2022-08-16T08:58:53.924Z,55.09
2022-08-16T09:04:04.590Z,54.48
2022-08-16T09:09:16.941Z,54.10
2022-08-16T09:14:24.180Z,54.30
2022-08-16T09:19:32.957Z,53.80
2022-08-16T09:24:52.142Z,53.62
2022-08-16T09:30:00.200Z,53.27
2022-08-16T09:35:05.870Z,53.55
2022-08-16T09:40:31.705Z,54.44
2022-08-16T09:45:39.688Z,55.66
2022-08-16T09:50:44.738Z,55.93
2022-08-16T09:55:53.280Z,55.74
2022-08-16T10:01:01.007Z,55.93
2022-08-16T10:06:04.894Z,56.24
2022-08-16T10:11:27.422Z,56.06
2022-08-16T10:16:32.239Z,54.32
2022-08-16T10:21:38.527Z,53.26
2022-08-16T10:27:19.264Z,54.04
2022-08-16T10:32:10.712Z,52.67
2022-08-16T10:37:15.050Z,52.38
2022-08-16T10:42:38.393Z,50.98
2022-08-16T10:47:45.185Z,49.91
2022-08-16T10:52:50.634Z,49.31
2022-08-16T10:58:11.921Z,48.64
2022-08-16T11:08:45.662Z,47.49
2022-08-16T11:14:05.924Z,47.73
2022-08-16T11:19:15.989Z,46.69
2022-08-16T11:24:40.001Z,45.85
2022-08-16T11:29:57.364Z,46.51
2022-08-16T11:35:14.838Z,46.29
2022-08-16T11:40:20.556Z,46.44
2022-08-16T11:45:36.845Z,46.59
2022-08-16T11:50:41.314Z,47.05
2022-08-16T11:55:45.042Z,47.07
2022-08-16T12:00:51.922Z,47.21
2022-08-16T12:05:58.363Z,47.25
2022-08-16T12:11:02.728Z,46.83
2022-08-16T12:16:09.184Z,46.19
2022-08-16T12:21:14.096Z,45.74
2022-08-16T12:26:17.905Z,45.59
2022-08-16T12:31:23.341Z,46.18
2022-08-16T12:36:30.042Z,47.06
2022-08-16T12:41:38.027Z,47.99
2022-08-16T12:47:08.468Z,48.50
2022-08-16T12:52:32.864Z,48.96
2022-08-16T12:57:37.058Z,48.41
2022-08-16T13:02:41.199Z,47.80
2022-08-16T13:07:51.867Z,47.36
2022-08-16T13:12:57.417Z,46.72
2022-08-16T13:18:01.396Z,46.54
2022-08-16T13:23:25.467Z,47.13
2022-08-16T13:28:29.776Z,47.77
2022-08-16T13:33:38.203Z,47.38
2022-08-16T13:38:41.956Z,46.91
2022-08-16T13:43:57.523Z,46.72
2022-08-16T13:49:03.650Z,45.96
2022-08-16T13:54:07.599Z,45.25
2022-08-16T13:59:20.422Z,45.43
2022-08-16T14:04:29.278Z,44.78
2022-08-16T14:09:34.766Z,45.33
2022-08-16T14:14:38.188Z,46.75
2022-08-16T14:19:45.067Z,47.48
2022-08-16T14:24:52.524Z,47.87
2022-08-16T14:29:58.393Z,48.73
2022-08-16T14:35:07.330Z,49.10
2022-08-16T14:40:14.973Z,50.12
2022-08-16T14:45:22.544Z,50.61
2022-08-16T14:50:28.461Z,51.48
2022-08-16T14:55:36.535Z,51.77
2022-08-16T15:00:41.369Z,52.62
2022-08-16T15:05:44.750Z,52.88
2022-08-16T15:10:48.082Z,53.52
2022-08-16T15:15:57.604Z,53.96
2022-08-16T15:21:05.925Z,54.17
2022-08-16T15:26:21.547Z,54.39
2022-08-16T15:31:36.344Z,53.67
2022-08-16T15:36:42.405Z,53.27
2022-08-16T15:41:46.921Z,53.37
2022-08-16T15:46:57.037Z,53.65
2022-08-16T15:52:03.128Z,54.20
2022-08-16T15:57:11.847Z,53.99
2022-08-16T16:02:29.771Z,53.76
2022-08-16T16:07:55.639Z,53.68
2022-08-16T16:13:04.798Z,53.79
2022-08-16T16:18:10.291Z,52.94
2022-08-16T16:23:21.292Z,52.99
2022-08-16T16:29:06.673Z,53.08
2022-08-16T16:33:58.117Z,53.35
2022-08-16T16:39:03.108Z,53.30
2022-08-16T16:44:06.933Z,53.38
2022-08-16T16:49:15.470Z,53.67
2022-08-16T16:54:27.437Z,53.23
2022-08-16T16:59:33.101Z,53.66
2022-08-16T17:04:37.825Z,54.60
2022-08-16T17:09:42.275Z,55.19
2022-08-16T17:14:47.652Z,55.84
2022-08-16T17:19:52.445Z,56.58
2022-08-16T17:24:58.384Z,56.79
2022-08-16T17:30:16.157Z,56.85
2022-08-16T17:35:33.654Z,57.09
2022-08-16T17:40:55.063Z,57.59
2022-08-16T17:46:03.027Z,58.22
2022-08-16T17:51:07.995Z,58.82
2022-08-16T17:56:13.566Z,59.15
2022-08-16T18:01:23.123Z,59.65
2022-08-16T18:06:27.649Z,60.19
2022-08-16T18:11:35.863Z,60.74
2022-08-16T18:16:41.564Z,61.25
2022-08-16T18:22:04.042Z,61.74
2022-08-16T18:27:26.107Z,62.24
2022-08-16T18:32:31.159Z,62.79
2022-08-16T18:37:35.187Z,63.40
2022-08-16T18:42:39.616Z,63.68
2022-08-16T18:47:43.150Z,63.98
2022-08-16T18:52:55.375Z,64.30
2022-08-16T18:58:00.827Z,65.10
2022-08-16T19:03:08.463Z,65.31
2022-08-16T19:08:14.132Z,65.42
2022-08-16T19:13:20.980Z,66.00
2022-08-16T19:18:25.020Z,66.21
2022-08-16T19:23:33.905Z,67.01
2022-08-16T19:28:50.917Z,67.08
2022-08-16T19:34:04.736Z,67.06
2022-08-16T19:39:13.155Z,67.39
2022-08-16T19:44:17.022Z,67.50
2022-08-16T19:49:21.470Z,67.65
2022-08-16T19:54:25.596Z,67.82
2022-08-16T19:59:39.713Z,68.07
2022-08-16T20:04:44.565Z,68.58
2022-08-16T20:09:49.165Z,69.40
2022-08-16T20:14:54.614Z,69.87
2022-08-16T20:20:00.576Z,70.13
2022-08-16T20:25:07.218Z,70.17
2022-08-16T20:30:12.433Z,70.57
2022-08-16T20:35:20.822Z,70.58
2022-08-16T20:40:34.818Z,70.55
2022-08-16T20:45:48.633Z,70.92
2022-08-16T20:50:53.289Z,70.82
2022-08-16T20:55:58.301Z,71.21
2022-08-16T21:01:07.708Z,70.87
2022-08-16T21:06:13.401Z,70.95
2022-08-16T21:11:22.729Z,71.73
2022-08-16T21:16:28.721Z,71.97
2022-08-16T21:21:36.204Z,72.08
2022-08-16T21:26:55.944Z,72.19
2022-08-16T21:32:17.054Z,72.12
2022-08-16T21:37:23.759Z,72.14
2022-08-16T21:42:36.576Z,71.71
2022-08-16T21:47:43.186Z,71.63
2022-08-16T21:52:49.909Z,72.04
2022-08-16T21:57:56.735Z,72.62
2022-08-16T22:03:04.993Z,72.70
2022-08-16T22:08:11.011Z,72.77
2022-08-16T22:13:19.654Z,73.11
2022-08-16T22:18:24.612Z,73.18
2022-08-16T22:23:29.203Z,73.01
2022-08-16T22:28:34.262Z,73.29
2022-08-16T22:33:39.733Z,73.30
2022-08-16T22:38:55.242Z,73.27
2022-08-16T22:44:02.717Z,73.16
2022-08-16T22:49:07.101Z,73.43
2022-08-16T22:54:43.935Z,73.57
2022-08-16T22:59:35.065Z,73.86
2022-08-16T23:04:38.585Z,73.85
2022-08-16T23:09:42.152Z,73.97
2022-08-16T23:14:45.789Z,73.87
2022-08-16T23:19:49.397Z,73.76
2022-08-16T23:24:56.020Z,73.60
2022-08-16T23:30:00.370Z,73.55
2022-08-16T23:35:04.827Z,73.27
2022-08-16T23:40:13.475Z,73.60
2022-08-16T23:45:21.075Z,73.82
2022-08-16T23:50:26.336Z,73.84
2022-08-16T23:55:32.780Z,74.12
